createdAt,value
2023-04-20T00:01:32.872Z,28.80
2023-04-20T00:06:29.968Z,29.80
2023-04-20T00:08:57.490Z,31.30
2023-04-20T00:11:24.642Z,31.00
2023-04-20T00:13:51.374Z,32.20
2023-04-20T00:16:18.655Z,29.30
2023-04-20T00:18:49.413Z,27.70
2023-04-20T00:21:17.216Z,32.60
2023-04-20T00:23:44.283Z,31.70
2023-04-20T00:26:11.524Z,25.30
2023-04-20T00:28:38.353Z,28.10
2023-04-20T00:31:06.529Z,26.70
2023-04-20T00:33:33.601Z,30.50
2023-04-20T00:36:00.771Z,28.40
2023-04-20T00:38:28.179Z,26.50
2023-04-20T00:40:58.291Z,27.00
2023-04-20T00:43:25.363Z,28.70
2023-04-20T00:45:55.197Z,27.30
2023-04-20T00:48:23.131Z,29.50
2023-04-20T00:50:51.007Z,26.60
2023-04-20T00:53:19.692Z,27.60
2023-04-20T00:55:47.720Z,27.80
2023-04-20T00:58:14.621Z,29.70
2023-04-20T01:00:41.709Z,31.50
2023-04-20T01:03:09.165Z,29.20
2023-04-20T01:05:36.766Z,31.70
2023-04-20T01:08:03.974Z,32.20
2023-04-20T01:10:31.014Z,31.90
2023-04-20T01:12:58.062Z,29.70
2023-04-20T01:15:25.148Z,36.30
2023-04-20T01:17:52.914Z,34.00
2023-04-20T01:20:21.052Z,26.80
2023-04-20T01:22:51.151Z,27.50
2023-04-20T01:25:18.800Z,29.80
2023-04-20T01:27:46.280Z,28.80
2023-04-20T01:30:13.857Z,28.10
2023-04-20T01:32:41.749Z,28.60
2023-04-20T01:35:10.254Z,27.20
2023-04-20T01:37:37.538Z,27.10
2023-04-20T01:40:06.789Z,23.70
2023-04-20T01:42:43.200Z,29.40
2023-04-20T01:45:11.152Z,28.00
2023-04-20T01:47:38.780Z,26.80
2023-04-20T01:50:07.154Z,30.00
2023-04-20T01:52:34.591Z,26.00
2023-04-20T01:55:02.001Z,28.60
2023-04-20T01:57:29.046Z,28.50
2023-04-20T01:59:55.883Z,28.40
2023-04-20T02:02:23.427Z,28.70
2023-04-20T02:04:50.797Z,26.00
2023-04-20T02:07:18.630Z,22.60
2023-04-20T02:09:46.282Z,29.80
2023-04-20T02:12:13.259Z,19.20
2023-04-20T02:14:40.714Z,26.90
2023-04-20T02:17:08.205Z,26.40
2023-04-20T02:19:35.220Z,26.70
2023-04-20T02:22:03.180Z,24.90
2023-04-20T02:24:30.295Z,27.30
2023-04-20T02:26:57.687Z,24.10
2023-04-20T02:29:26.360Z,23.90
2023-04-20T02:31:53.642Z,23.10
2023-04-20T02:34:21.007Z,26.50
2023-04-20T02:36:49.159Z,28.50
2023-04-20T02:39:16.534Z,28.40
2023-04-20T02:41:43.880Z,21.30
2023-04-20T02:44:11.209Z,23.40
2023-04-20T02:46:38.442Z,22.60
2023-04-20T02:49:05.643Z,21.30
2023-04-20T02:51:32.742Z,23.50
2023-04-20T02:53:59.809Z,22.20
2023-04-20T02:56:27.327Z,23.30
2023-04-20T02:58:55.653Z,28.10
2023-04-20T03:01:22.764Z,28.50
2023-04-20T03:03:50.145Z,27.00
2023-04-20T03:06:17.479Z,28.20
2023-04-20T03:08:45.251Z,26.50
2023-04-20T03:11:12.448Z,28.60
2023-04-20T03:13:39.431Z,23.60
2023-04-20T03:16:06.979Z,31.90
2023-04-20T03:18:34.292Z,32.20
2023-04-20T03:21:01.280Z,29.90
2023-04-20T03:23:28.282Z,24.10
2023-04-20T03:25:55.268Z,25.70
2023-04-20T03:28:22.421Z,25.60
2023-04-20T03:30:49.457Z,26.00
2023-04-20T03:33:16.825Z,25.60
2023-04-20T03:35:44.269Z,24.80
2023-04-20T03:38:11.203Z,25.00
2023-04-20T03:40:38.252Z,24.40
2023-04-20T03:43:05.604Z,21.90
2023-04-20T03:45:32.944Z,23.30
2023-04-20T03:48:00.077Z,24.80
2023-04-20T03:50:27.400Z,22.20
2023-04-20T03:52:54.526Z,22.90
2023-04-20T03:55:21.548Z,22.00
2023-04-20T03:57:49.206Z,23.00
2023-04-20T04:00:17.242Z,23.90
2023-04-20T04:02:44.439Z,21.80
2023-04-20T04:05:11.532Z,22.60
2023-04-20T04:07:39.016Z,24.80
2023-04-20T04:10:07.024Z,23.20
2023-04-20T04:12:33.969Z,22.60
2023-04-20T04:15:01.084Z,23.50
2023-04-20T04:17:28.418Z,26.10
2023-04-20T04:19:55.682Z,26.60
2023-04-20T04:22:22.697Z,25.10
2023-04-20T04:24:49.885Z,24.10
2023-04-20T04:27:17.096Z,25.60
2023-04-20T04:29:45.243Z,23.10
2023-04-20T04:32:12.757Z,21.60
2023-04-20T04:34:39.980Z,26.40
2023-04-20T04:37:07.152Z,26.30
2023-04-20T04:39:34.413Z,25.30
2023-04-20T04:42:02.527Z,23.10
2023-04-20T04:44:32.298Z,25.80
2023-04-20T04:46:59.229Z,26.40
2023-04-20T04:49:27.004Z,28.60
2023-04-20T04:51:54.239Z,26.70
2023-04-20T04:54:21.297Z,25.40
2023-04-20T04:56:48.326Z,31.00
2023-04-20T04:59:15.517Z,27.90
2023-04-20T05:01:42.804Z,26.70
2023-04-20T05:04:10.043Z,26.50
2023-04-20T05:06:37.151Z,26.20
2023-04-20T05:09:04.795Z,26.10
2023-04-20T05:11:32.150Z,26.10
2023-04-20T05:13:58.964Z,24.30
2023-04-20T05:16:25.964Z,22.80
2023-04-20T05:18:52.870Z,22.50
2023-04-20T05:21:19.806Z,23.20
2023-04-20T05:23:47.048Z,26.40
2023-04-20T05:26:14.096Z,26.10
2023-04-20T05:28:41.047Z,24.80
2023-04-20T05:31:08.520Z,26.10
2023-04-20T05:33:35.440Z,26.80
2023-04-20T05:36:02.375Z,26.20
2023-04-20T05:38:29.220Z,25.10
2023-04-20T05:40:56.886Z,25.00
2023-04-20T05:43:23.944Z,26.50
2023-04-20T05:45:50.929Z,26.50
2023-04-20T05:48:18.012Z,25.30
2023-04-20T05:50:44.984Z,23.30
2023-04-20T05:53:12.009Z,26.20
2023-04-20T05:55:38.948Z,23.60
2023-04-20T05:58:06.335Z,23.60
2023-04-20T06:00:33.462Z,23.10
2023-04-20T06:03:00.842Z,23.30
2023-04-20T06:05:27.900Z,22.70
2023-04-20T06:07:54.815Z,20.80
2023-04-20T06:10:21.836Z,19.30
2023-04-20T06:12:48.834Z,18.90
2023-04-20T06:15:16.204Z,20.50
2023-04-20T06:17:43.181Z,20.00
2023-04-20T06:20:11.962Z,19.00
2023-04-20T06:22:48.457Z,19.10
2023-04-20T06:25:18.300Z,15.60
2023-04-20T06:27:45.497Z,15.60
2023-04-20T06:30:13.710Z,16.80
2023-04-20T06:32:41.254Z,13.10
2023-04-20T06:35:09.168Z,17.80
2023-04-20T06:37:37.251Z,15.80
2023-04-20T06:40:08.687Z,17.40
2023-04-20T06:42:37.113Z,15.20
2023-04-20T06:45:06.080Z,14.90
2023-04-20T06:47:34.222Z,14.80
2023-04-20T06:50:03.351Z,15.00
2023-04-20T06:52:31.736Z,15.70
2023-04-20T06:55:00.728Z,15.00
2023-04-20T06:57:27.638Z,12.30
2023-04-20T06:59:54.696Z,10.40
2023-04-20T07:02:21.905Z,12.00
2023-04-20T07:04:49.142Z,12.00
2023-04-20T07:07:16.334Z,11.10
2023-04-20T07:09:43.494Z,12.50
2023-04-20T07:12:11.773Z,14.10
2023-04-20T07:14:39.212Z,10.40
2023-04-20T07:17:06.391Z,13.40
2023-04-20T07:19:33.605Z,14.30
2023-04-20T07:22:00.573Z,11.90
2023-04-20T07:24:28.347Z,14.20
2023-04-20T07:26:55.981Z,11.30
2023-04-20T07:29:23.257Z,15.20
2023-04-20T07:31:50.437Z,14.90
2023-04-20T07:34:17.970Z,14.20
2023-04-20T07:36:45.816Z,14.50
2023-04-20T07:39:12.978Z,13.10
2023-04-20T07:41:40.100Z,11.50
2023-04-20T07:44:07.136Z,13.50
2023-04-20T07:46:34.098Z,10.80
2023-04-20T07:49:01.459Z,9.80
2023-04-20T07:51:30.559Z,11.30
2023-04-20T07:53:57.986Z,8.60
2023-04-20T07:56:25.276Z,11.70
2023-04-20T07:58:52.412Z,10.90
2023-04-20T08:01:24.641Z,11.50
2023-04-20T08:03:52.651Z,14.80
2023-04-20T08:06:19.917Z,67.20
2023-04-20T08:08:47.144Z,14.20
2023-04-20T08:11:14.699Z,14.70
2023-04-20T08:13:41.709Z,11.40
2023-04-20T08:16:08.698Z,13.40
2023-04-20T08:18:35.764Z,19.10
2023-04-20T08:21:02.980Z,10.30
2023-04-20T08:23:29.906Z,11.70
2023-04-20T08:25:58.034Z,12.90
2023-04-20T08:30:57.002Z,9.70
2023-04-20T08:33:24.133Z,9.10
2023-04-20T08:35:52.191Z,8.30
2023-04-20T08:38:23.753Z,10.40
2023-04-20T08:40:57.754Z,8.50
2023-04-20T08:43:24.896Z,8.50
2023-04-20T08:45:58.075Z,9.10
2023-04-20T08:48:27.305Z,8.10
2023-04-20T08:50:56.232Z,10.20
2023-04-20T08:53:23.224Z,11.10
2023-04-20T08:55:51.071Z,11.00
2023-04-20T08:58:18.673Z,10.80
2023-04-20T09:00:49.774Z,11.40
2023-04-20T09:03:17.303Z,10.60
2023-04-20T09:05:45.299Z,12.30
2023-04-20T09:08:12.591Z,11.10
2023-04-20T09:10:44.336Z,11.30
2023-04-20T09:13:37.701Z,10.30
2023-04-20T09:16:12.405Z,9.50
2023-04-20T09:18:39.948Z,10.30
2023-04-20T09:21:11.177Z,9.30
2023-04-20T09:23:38.339Z,6.90
2023-04-20T09:26:05.423Z,7.80
2023-04-20T09:28:40.042Z,8.10
2023-04-20T09:31:17.503Z,9.90
2023-04-20T09:33:44.424Z,9.80
2023-04-20T09:36:12.095Z,9.70
2023-04-20T09:38:39.056Z,9.40
2023-04-20T09:41:07.340Z,9.40
2023-04-20T09:43:36.468Z,7.20
2023-04-20T09:46:04.561Z,5.90
2023-04-20T09:48:32.225Z,6.50
2023-04-20T09:51:02.559Z,6.90
2023-04-20T09:53:31.942Z,7.30
2023-04-20T09:56:01.003Z,7.60
2023-04-20T09:58:28.997Z,7.10
2023-04-20T10:00:56.013Z,7.70
2023-04-20T10:03:23.478Z,7.60
2023-04-20T10:05:52.987Z,7.90
2023-04-20T10:08:21.331Z,7.50
2023-04-20T10:10:50.879Z,7.50
2023-04-20T10:13:22.164Z,8.00
2023-04-20T10:15:49.618Z,8.90
2023-04-20T10:18:24.081Z,8.70
2023-04-20T10:20:52.728Z,8.50
2023-04-20T10:23:20.617Z,8.00
2023-04-20T10:26:01.227Z,8.70
2023-04-20T10:28:42.249Z,7.10
2023-04-20T10:31:13.873Z,4.20
2023-04-20T10:34:09.961Z,7.60
2023-04-20T10:36:38.496Z,6.80
2023-04-20T10:39:20.125Z,7.60
2023-04-20T10:41:54.941Z,8.90
2023-04-20T10:44:22.257Z,9.20
2023-04-20T10:46:51.036Z,6.20
2023-04-20T10:49:19.645Z,8.70
2023-04-20T10:51:48.725Z,7.90
2023-04-20T10:54:18.171Z,8.40
2023-04-20T10:56:52.912Z,8.50
2023-04-20T10:59:23.192Z,7.30
2023-04-20T11:01:51.684Z,8.80
2023-04-20T11:04:19.406Z,9.80
2023-04-20T11:06:48.637Z,7.90
2023-04-20T11:09:20.660Z,8.80
2023-04-20T11:12:02.479Z,10.10
2023-04-20T11:14:30.980Z,9.10
2023-04-20T11:16:58.366Z,9.40
2023-04-20T11:19:31.387Z,6.30
2023-04-20T11:21:59.585Z,9.30
2023-04-20T11:24:28.619Z,9.20
2023-04-20T11:26:56.581Z,8.70
2023-04-20T11:29:32.236Z,7.20
2023-04-20T11:32:01.540Z,7.60
2023-04-20T11:34:29.320Z,6.50
2023-04-20T11:36:57.340Z,8.10
2023-04-20T11:39:26.191Z,5.40
2023-04-20T11:41:54.121Z,5.10
2023-04-20T11:44:22.097Z,7.00
2023-04-20T11:46:49.616Z,6.50
2023-04-20T11:49:17.727Z,6.80
2023-04-20T11:51:46.782Z,5.90
2023-04-20T11:54:14.653Z,6.60
2023-04-20T11:56:42.609Z,5.70
2023-04-20T11:59:10.095Z,6.50
2023-04-20T12:01:38.061Z,5.30
2023-04-20T12:04:05.677Z,6.20
2023-04-20T12:06:33.557Z,5.90
2023-04-20T12:09:01.294Z,5.90
2023-04-20T12:11:28.929Z,5.10
2023-04-20T12:14:06.554Z,6.00
2023-04-20T12:16:33.656Z,5.50
2023-04-20T12:19:00.876Z,6.00
2023-04-20T12:21:27.907Z,6.20
2023-04-20T12:23:54.849Z,5.90
2023-04-20T12:26:27.050Z,5.20
2023-04-20T12:29:02.564Z,5.20
2023-04-20T12:31:30.047Z,4.80
2023-04-20T12:33:57.012Z,4.50
2023-04-20T12:36:24.251Z,4.30
2023-04-20T12:38:52.947Z,4.90
2023-04-20T12:41:20.689Z,5.20
2023-04-20T12:43:47.926Z,5.00
2023-04-20T12:46:14.777Z,4.60
2023-04-20T12:48:41.901Z,4.10
2023-04-20T12:51:08.784Z,6.90
2023-04-20T12:53:36.095Z,4.10
2023-04-20T12:56:03.761Z,4.20
2023-04-20T12:58:31.201Z,3.60
2023-04-20T13:00:59.014Z,3.60
2023-04-20T13:03:25.981Z,7.70
2023-04-20T13:05:52.970Z,4.30
2023-04-20T13:08:20.447Z,4.00
2023-04-20T13:10:47.885Z,5.20
2023-04-20T13:13:15.059Z,8.60
2023-04-20T13:15:42.170Z,18.20
2023-04-20T13:18:10.337Z,12.80
2023-04-20T13:20:38.194Z,4.90
2023-04-20T13:23:06.012Z,4.70
2023-04-20T13:25:34.050Z,4.60
2023-04-20T13:28:03.522Z,3.90
2023-04-20T13:30:30.609Z,4.70
2023-04-20T13:32:58.379Z,3.90
2023-04-20T13:35:26.136Z,6.60
2023-04-20T13:37:53.332Z,4.30
2023-04-20T13:40:20.869Z,4.90
2023-04-20T13:42:48.288Z,4.40
2023-04-20T13:45:15.816Z,4.80
2023-04-20T13:47:43.202Z,4.80
2023-04-20T13:50:11.263Z,5.70
2023-04-20T13:52:38.540Z,4.90
2023-04-20T13:55:06.149Z,5.50
2023-04-20T13:57:33.671Z,5.40
2023-04-20T14:00:01.621Z,5.30
2023-04-20T14:02:30.136Z,5.60
2023-04-20T14:04:57.691Z,5.20
2023-04-20T14:07:24.775Z,5.00
2023-04-20T14:09:54.869Z,5.00
2023-04-20T14:12:22.371Z,3.50
2023-04-20T14:14:49.261Z,5.50
2023-04-20T14:17:16.322Z,5.40
2023-04-20T14:19:43.336Z,5.80
2023-04-20T14:22:10.404Z,5.40
2023-04-20T14:24:37.411Z,4.90
2023-04-20T14:27:04.911Z,4.30
2023-04-20T14:29:31.841Z,5.90
2023-04-20T14:31:59.041Z,6.30
2023-04-20T14:34:26.054Z,6.20
2023-04-20T14:36:53.341Z,4.40
2023-04-20T14:39:21.436Z,4.50
2023-04-20T14:41:48.220Z,4.80
2023-04-20T14:44:15.591Z,4.70
2023-04-20T14:46:42.951Z,4.30
2023-04-20T14:49:10.968Z,3.60
2023-04-20T14:51:38.372Z,4.60
2023-04-20T14:54:08.299Z,5.10
2023-04-20T14:56:35.381Z,4.20
2023-04-20T14:59:02.630Z,6.60
2023-04-20T15:01:29.521Z,9.50
2023-04-20T15:03:57.172Z,14.10
2023-04-20T15:06:24.544Z,4.30
2023-04-20T15:08:54.774Z,3.60
2023-04-20T15:11:21.811Z,3.80
2023-04-20T15:13:59.016Z,3.70
2023-04-20T15:16:35.576Z,3.30
2023-04-20T15:19:02.542Z,3.60
2023-04-20T15:21:29.851Z,4.40
2023-04-20T15:23:57.038Z,4.00
2023-04-20T15:26:24.298Z,2.90
2023-04-20T15:28:51.948Z,3.10
2023-04-20T15:31:27.982Z,3.30
2023-04-20T15:34:04.876Z,3.10
2023-04-20T15:36:33.555Z,3.10
2023-04-20T15:39:03.139Z,2.70
2023-04-20T15:41:39.678Z,2.90
2023-04-20T15:44:13.206Z,3.20
2023-04-20T15:46:42.553Z,3.10
2023-04-20T15:49:09.543Z,11.90
2023-04-20T15:51:37.864Z,5.40
2023-04-20T15:54:10.917Z,3.50
2023-04-20T15:56:49.288Z,8.40
2023-04-20T15:59:26.953Z,3.90
2023-04-20T16:02:02.775Z,3.10
2023-04-20T16:04:38.795Z,3.00
2023-04-20T16:07:21.423Z,2.60
2023-04-20T16:09:53.804Z,3.60
2023-04-20T16:12:21.398Z,3.00
2023-04-20T16:14:50.797Z,2.30
2023-04-20T16:17:19.338Z,2.90
2023-04-20T16:19:46.783Z,2.10
2023-04-20T16:22:14.618Z,3.40
2023-04-20T16:24:41.844Z,2.80
2023-04-20T16:27:09.804Z,2.10
2023-04-20T16:29:37.030Z,3.50
2023-04-20T16:32:04.101Z,2.60
2023-04-20T16:34:32.219Z,3.20
2023-04-20T16:36:59.952Z,2.90
2023-04-20T16:39:26.965Z,2.70
2023-04-20T16:41:54.396Z,3.00
2023-04-20T16:44:21.602Z,3.00
2023-04-20T16:46:51.750Z,2.70
2023-04-20T16:49:19.430Z,2.80
2023-04-20T16:51:46.497Z,2.80
2023-04-20T16:54:14.228Z,3.50
2023-04-20T16:56:41.213Z,3.00
2023-04-20T16:59:08.463Z,2.30
2023-04-20T17:01:35.640Z,2.60
2023-04-20T17:04:03.298Z,3.20
2023-04-20T17:06:30.563Z,2.70
2023-04-20T17:09:05.278Z,5.20
2023-04-20T17:11:35.781Z,4.20
2023-04-20T17:14:03.579Z,3.20
2023-04-20T17:16:31.320Z,3.60
2023-04-20T17:18:58.348Z,3.20
2023-04-20T17:21:27.120Z,4.20
2023-04-20T17:23:54.124Z,5.90
2023-04-20T17:26:21.349Z,7.30
2023-04-20T17:28:48.638Z,9.20
2023-04-20T17:31:15.665Z,16.90
2023-04-20T17:33:43.786Z,19.50
2023-04-20T17:36:11.362Z,11.80
2023-04-20T17:38:39.082Z,5.20
2023-04-20T17:41:06.595Z,4.50
2023-04-20T17:43:35.441Z,10.20
2023-04-20T17:46:02.480Z,4.50
2023-04-20T17:48:29.879Z,4.90
2023-04-20T17:50:58.716Z,13.70
2023-04-20T17:53:26.441Z,16.50
2023-04-20T17:55:53.661Z,20.20
2023-04-20T17:58:20.915Z,14.50
2023-04-20T18:00:48.154Z,6.30
2023-04-20T18:03:15.498Z,5.40
2023-04-20T18:05:42.993Z,5.20
2023-04-20T18:08:10.606Z,6.60
2023-04-20T18:10:37.860Z,28.60
2023-04-20T18:13:05.614Z,11.40
2023-04-20T18:15:32.884Z,8.90
2023-04-20T18:18:00.081Z,7.80
2023-04-20T18:20:27.368Z,6.40
2023-04-20T18:22:54.678Z,8.10
2023-04-20T18:25:21.811Z,13.60
2023-04-20T18:27:49.331Z,14.10
2023-04-20T18:30:18.833Z,10.70
2023-04-20T18:32:46.109Z,7.70
2023-04-20T18:35:13.185Z,10.50
2023-04-20T18:37:40.093Z,11.80
2023-04-20T18:40:08.619Z,14.70
2023-04-20T18:42:35.642Z,14.60
2023-04-20T18:45:03.988Z,13.50
2023-04-20T18:47:31.125Z,13.90
2023-04-20T18:49:58.524Z,17.80
2023-04-20T18:52:25.671Z,19.90
2023-04-20T18:54:55.758Z,18.50
2023-04-20T18:57:26.459Z,17.60
2023-04-20T18:59:53.965Z,23.10
2023-04-20T19:02:21.821Z,28.20
2023-04-20T19:04:48.839Z,29.80
2023-04-20T19:07:16.598Z,21.60
2023-04-20T19:09:43.720Z,19.30
2023-04-20T19:12:10.839Z,20.60
2023-04-20T19:14:37.958Z,23.10
2023-04-20T19:17:07.411Z,18.80
2023-04-20T19:19:35.003Z,21.60
2023-04-20T19:22:03.818Z,25.60
2023-04-20T19:24:34.925Z,24.30
2023-04-20T19:27:02.467Z,20.00
2023-04-20T19:29:30.034Z,24.80
2023-04-20T19:31:57.461Z,24.50
2023-04-20T19:34:24.683Z,25.20
2023-04-20T19:36:54.038Z,28.20
2023-04-20T19:39:21.398Z,27.40
2023-04-20T19:41:48.824Z,28.90
2023-04-20T19:44:16.940Z,26.80
2023-04-20T19:46:44.154Z,26.20
2023-04-20T19:49:11.303Z,27.20
2023-04-20T19:51:38.929Z,25.20
2023-04-20T19:54:06.117Z,23.50
2023-04-20T19:56:34.063Z,23.90
2023-04-20T19:59:01.399Z,26.10
2023-04-20T20:01:28.481Z,30.00
2023-04-20T20:03:56.095Z,28.60
2023-04-20T20:06:24.106Z,24.80
2023-04-20T20:08:52.042Z,25.20
2023-04-20T20:11:19.446Z,21.20
2023-04-20T20:13:46.768Z,21.00
2023-04-20T20:16:14.071Z,19.40
2023-04-20T20:18:41.946Z,18.00
2023-04-20T20:21:09.642Z,16.40
2023-04-20T20:23:37.197Z,16.00
2023-04-20T20:26:04.062Z,15.80
2023-04-20T20:28:30.921Z,15.50
2023-04-20T20:30:57.913Z,14.10
2023-04-20T20:33:24.969Z,15.90
2023-04-20T20:35:52.839Z,14.70
2023-04-20T20:38:21.209Z,15.00
2023-04-20T20:40:50.625Z,14.40
2023-04-20T20:43:20.431Z,14.60
2023-04-20T20:45:47.672Z,12.60
2023-04-20T20:48:14.617Z,13.40
2023-04-20T20:50:41.460Z,13.90
2023-04-20T20:53:09.673Z,13.50
2023-04-20T20:55:37.403Z,12.40
2023-04-20T20:58:05.641Z,12.90
2023-04-20T21:00:33.909Z,11.90
2023-04-20T21:03:01.078Z,11.70
2023-04-20T21:05:28.241Z,11.60
2023-04-20T21:07:55.145Z,12.30
2023-04-20T21:10:22.025Z,13.10
2023-04-20T21:12:48.858Z,12.40
2023-04-20T21:15:15.696Z,13.40
2023-04-20T21:17:42.570Z,14.10
2023-04-20T21:20:10.407Z,13.90
2023-04-20T21:22:37.350Z,14.70
2023-04-20T21:25:05.090Z,13.00
2023-04-20T21:27:31.962Z,19.00
2023-04-20T21:29:58.793Z,16.70
2023-04-20T21:32:26.829Z,15.50
2023-04-20T21:34:53.899Z,19.70
2023-04-20T21:37:21.157Z,17.10
2023-04-20T21:39:50.894Z,20.80
2023-04-20T21:42:17.913Z,18.00
2023-04-20T21:44:45.062Z,19.30
2023-04-20T21:47:12.763Z,23.20
2023-04-20T21:49:39.655Z,24.60
2023-04-20T21:52:06.747Z,24.30
2023-04-20T21:54:34.798Z,23.40
2023-04-20T21:57:02.328Z,23.20
2023-04-20T21:59:29.633Z,21.50
2023-04-20T22:01:56.752Z,22.40
2023-04-20T22:04:27.300Z,23.00
2023-04-20T22:06:55.897Z,25.00
2023-04-20T22:09:23.340Z,26.80
2023-04-20T22:11:50.236Z,24.70
2023-04-20T22:14:18.264Z,22.00
2023-04-20T22:16:46.543Z,19.40
2023-04-20T22:19:13.850Z,22.20
2023-04-20T22:21:40.776Z,30.90
2023-04-20T22:24:08.042Z,44.70
2023-04-20T22:26:35.951Z,32.20
2023-04-20T22:29:03.033Z,30.80
2023-04-20T22:31:33.385Z,30.30
2023-04-20T22:34:00.302Z,29.40
2023-04-20T22:36:28.618Z,34.60
2023-04-20T22:38:55.618Z,35.10
2023-04-20T22:41:22.680Z,34.10
2023-04-20T22:43:49.523Z,26.30
2023-04-20T22:46:16.739Z,33.00
2023-04-20T22:48:47.234Z,36.50
2023-04-20T22:51:17.594Z,39.00
2023-04-20T22:53:45.058Z,34.20
2023-04-20T22:56:12.433Z,30.00
2023-04-20T22:58:39.448Z,29.60
2023-04-20T23:01:16.366Z,27.10
2023-04-20T23:03:43.464Z,27.80
2023-04-20T23:06:11.781Z,29.20
2023-04-20T23:08:40.263Z,27.10
2023-04-20T23:11:07.500Z,26.30
2023-04-20T23:13:34.830Z,27.10
2023-04-20T23:16:01.813Z,27.10
2023-04-20T23:18:28.820Z,28.10
2023-04-20T23:20:57.424Z,33.40
2023-04-20T23:23:24.379Z,31.00
2023-04-20T23:25:51.387Z,31.10
2023-04-20T23:28:18.523Z,30.70
2023-04-20T23:30:45.584Z,30.10
2023-04-20T23:33:12.445Z,29.60
2023-04-20T23:35:39.576Z,34.00
2023-04-20T23:38:06.544Z,34.50
2023-04-20T23:40:33.779Z,31.50
2023-04-20T23:43:01.112Z,31.50
2023-04-20T23:45:28.050Z,30.00
2023-04-20T23:47:54.996Z,26.50
2023-04-20T23:50:22.067Z,32.90
2023-04-20T23:52:48.985Z,30.70
2023-04-20T23:55:16.028Z,30.90
2023-04-20T23:57:42.973Z,29.50
